createdAt,value
2023-02-28T00:02:27.193Z,8.33
2023-02-28T00:05:35.618Z,8.28
2023-02-28T00:08:42.360Z,8.27
2023-02-28T00:11:50.542Z,8.13
2023-02-28T00:14:57.049Z,8.14
2023-02-28T00:18:04.336Z,7.88
2023-02-28T00:21:12.207Z,8.22
2023-02-28T00:24:18.259Z,8.17
2023-02-28T00:27:24.799Z,7.94
2023-02-28T00:30:31.186Z,7.94
2023-02-28T00:33:37.683Z,8.17
2023-02-28T00:36:47.348Z,8.31
2023-02-28T00:39:53.734Z,8.36
2023-02-28T00:43:00.025Z,8.41
2023-02-28T00:46:07.044Z,8.34
2023-02-28T00:49:12.931Z,8.24
2023-02-28T00:52:20.176Z,8.26
2023-02-28T00:55:26.230Z,8.25
2023-02-28T00:58:32.445Z,8.19
2023-02-28T01:01:38.338Z,7.87
2023-02-28T01:04:44.656Z,7.88
2023-02-28T01:07:52.340Z,8.00
2023-02-28T01:10:59.071Z,7.92
2023-02-28T01:14:05.967Z,8.07
2023-02-28T01:17:12.601Z,7.90
2023-02-28T01:20:18.838Z,7.66
2023-02-28T01:23:26.677Z,7.97
2023-02-28T01:26:33.684Z,7.40
2023-02-28T01:29:39.849Z,7.42
2023-02-28T01:32:46.192Z,7.57
2023-02-28T01:35:59.694Z,7.39
2023-02-28T01:39:07.325Z,7.63
2023-02-28T01:42:13.642Z,7.86
2023-02-28T01:45:26.016Z,7.99
2023-02-28T01:48:37.118Z,7.93
2023-02-28T01:51:47.540Z,7.71
2023-02-28T01:54:58.859Z,7.37
2023-02-28T01:58:08.456Z,7.61
2023-02-28T02:01:22.756Z,7.63
2023-02-28T02:04:35.217Z,7.46
2023-02-28T02:07:43.536Z,7.53
2023-02-28T02:10:55.227Z,7.70
2023-02-28T02:14:34.269Z,7.73
2023-02-28T02:17:43.982Z,7.64
2023-02-28T02:21:31.401Z,7.63
2023-02-28T02:25:14.338Z,7.54
2023-02-28T02:28:42.756Z,7.46
2023-02-28T02:32:11.721Z,7.40
2023-02-28T02:35:27.648Z,7.47
2023-02-28T02:38:37.626Z,7.41
2023-02-28T02:41:49.241Z,7.38
2023-02-28T02:45:03.500Z,7.27
2023-02-28T02:48:12.811Z,7.55
2023-02-28T02:51:23.480Z,7.45
2023-02-28T02:54:33.723Z,7.47
2023-02-28T02:57:45.481Z,7.21
2023-02-28T03:00:55.696Z,6.26
2023-02-28T03:04:05.232Z,6.05
2023-02-28T03:07:12.887Z,6.22
2023-02-28T03:10:32.401Z,6.03
2023-02-28T03:13:57.359Z,6.08
2023-02-28T03:17:20.801Z,6.32
2023-02-28T03:20:40.550Z,6.21
2023-02-28T03:23:58.426Z,6.42
2023-02-28T03:27:11.080Z,6.84
2023-02-28T03:30:26.328Z,6.98
2023-02-28T03:33:36.530Z,7.10
2023-02-28T03:36:49.839Z,7.18
2023-02-28T03:40:02.227Z,7.06
2023-02-28T03:43:15.054Z,7.08
2023-02-28T03:46:25.100Z,7.18
2023-02-28T03:49:37.243Z,6.94
2023-02-28T03:52:49.957Z,6.92
2023-02-28T03:56:01.719Z,6.68
2023-02-28T03:59:13.208Z,6.27
2023-02-28T04:02:19.734Z,6.37
2023-02-28T04:05:26.319Z,6.13
2023-02-28T04:08:32.485Z,6.24
2023-02-28T04:11:42.126Z,6.45
2023-02-28T04:14:48.357Z,6.89
2023-02-28T04:17:54.933Z,6.89
2023-02-28T04:21:03.012Z,6.50
2023-02-28T04:24:15.160Z,6.90
2023-02-28T04:27:23.212Z,6.91
2023-02-28T04:30:30.822Z,7.01
2023-02-28T04:33:37.366Z,7.09
2023-02-28T04:36:43.710Z,7.13
2023-02-28T04:39:50.032Z,6.99
2023-02-28T04:42:57.811Z,7.08
2023-02-28T04:46:06.760Z,6.82
2023-02-28T04:49:14.353Z,6.37
2023-02-28T04:52:20.779Z,5.91
2023-02-28T04:55:27.249Z,6.05
2023-02-28T04:58:35.433Z,6.43
2023-02-28T05:01:41.872Z,6.82
2023-02-28T05:04:48.395Z,6.93
2023-02-28T05:07:54.742Z,6.82
2023-02-28T05:11:01.916Z,6.97
2023-02-28T05:14:13.224Z,6.40
2023-02-28T05:17:19.648Z,6.44
2023-02-28T05:20:26.396Z,6.74
2023-02-28T05:23:33.031Z,6.80
2023-02-28T05:26:41.225Z,6.52
2023-02-28T05:29:49.203Z,6.83
2023-02-28T05:32:55.424Z,6.67
2023-02-28T05:36:02.281Z,6.57
2023-02-28T05:39:13.644Z,6.58
2023-02-28T05:42:19.971Z,6.54
2023-02-28T05:45:28.017Z,6.97
2023-02-28T05:48:35.221Z,6.61
2023-02-28T05:51:41.864Z,6.66
2023-02-28T05:54:49.032Z,6.32
2023-02-28T05:57:55.393Z,6.48
2023-02-28T06:01:21.346Z,7.00
2023-02-28T06:04:31.997Z,6.78
2023-02-28T06:07:38.645Z,6.69
2023-02-28T06:10:44.707Z,6.67
2023-02-28T06:13:51.156Z,6.91
2023-02-28T06:16:59.546Z,7.17
2023-02-28T06:20:06.924Z,7.35
2023-02-28T06:23:13.302Z,7.49
2023-02-28T06:26:19.841Z,6.97
2023-02-28T06:29:26.280Z,6.76
2023-02-28T06:32:34.111Z,7.21
2023-02-28T06:35:40.726Z,7.22
2023-02-28T06:38:49.430Z,7.39
2023-02-28T06:41:56.625Z,7.57
2023-02-28T06:45:04.542Z,7.58
2023-02-28T06:48:12.703Z,7.90
2023-02-28T06:51:21.410Z,7.82
2023-02-28T06:54:28.351Z,7.33
2023-02-28T06:57:36.696Z,7.13
2023-02-28T07:00:43.414Z,7.78
2023-02-28T07:03:53.452Z,7.83
2023-02-28T07:07:00.008Z,7.97
2023-02-28T07:10:07.355Z,7.72
2023-02-28T07:13:13.966Z,8.16
2023-02-28T07:16:20.978Z,7.64
2023-02-28T07:19:29.193Z,7.85
2023-02-28T07:22:35.564Z,8.67
2023-02-28T07:25:41.979Z,8.34
2023-02-28T07:28:50.241Z,8.71
2023-02-28T07:31:56.622Z,8.70
2023-02-28T07:35:04.266Z,9.10
2023-02-28T07:38:11.208Z,8.99
2023-02-28T07:41:17.963Z,9.18
2023-02-28T07:44:24.210Z,9.76
2023-02-28T07:47:31.524Z,9.36
2023-02-28T07:50:39.347Z,9.78
2023-02-28T07:53:45.657Z,10.06
2023-02-28T07:56:51.755Z,10.22
2023-02-28T07:59:58.040Z,10.02
2023-02-28T08:03:04.343Z,10.29
2023-02-28T08:06:19.213Z,10.83
2023-02-28T08:09:25.578Z,10.64
2023-02-28T08:12:32.002Z,10.27
2023-02-28T08:15:38.662Z,10.10
2023-02-28T08:18:45.163Z,11.18
2023-02-28T08:21:53.186Z,10.44
2023-02-28T08:24:59.730Z,10.89
2023-02-28T08:28:06.793Z,10.60
2023-02-28T08:31:15.720Z,11.38
2023-02-28T08:34:22.273Z,11.96
2023-02-28T08:37:29.991Z,11.62
2023-02-28T08:40:36.730Z,11.82
2023-02-28T08:43:43.765Z,11.69
2023-02-28T08:46:50.200Z,11.85
2023-02-28T08:49:56.407Z,12.15
2023-02-28T08:53:03.991Z,11.99
2023-02-28T08:56:11.755Z,11.97
2023-02-28T08:59:17.862Z,11.33
2023-02-28T09:02:24.101Z,12.02
2023-02-28T09:05:31.056Z,11.38
2023-02-28T09:08:38.983Z,11.62
2023-02-28T09:11:45.021Z,12.08
2023-02-28T09:14:51.072Z,11.89
2023-02-28T09:17:57.365Z,11.71
2023-02-28T09:21:05.939Z,11.78
2023-02-28T09:24:15.491Z,12.21
2023-02-28T09:27:21.488Z,12.39
2023-02-28T09:30:27.893Z,12.56
2023-02-28T09:33:35.392Z,12.52
2023-02-28T09:36:45.619Z,12.44
2023-02-28T09:39:54.182Z,12.53
2023-02-28T09:43:02.369Z,12.26
2023-02-28T09:46:16.847Z,12.67
2023-02-28T09:49:27.781Z,12.90
2023-02-28T09:52:36.055Z,12.55
2023-02-28T09:55:47.476Z,12.57
2023-02-28T09:58:57.363Z,12.48
2023-02-28T10:02:12.926Z,12.41
2023-02-28T10:05:22.287Z,13.18
2023-02-28T10:08:33.738Z,12.88
2023-02-28T10:11:43.903Z,13.06
2023-02-28T10:14:54.025Z,13.32
2023-02-28T10:18:09.026Z,13.24
2023-02-28T10:21:23.228Z,13.14
2023-02-28T10:24:34.774Z,13.27
2023-02-28T10:27:42.802Z,13.33
2023-02-28T10:30:51.189Z,12.93
2023-02-28T10:33:58.008Z,13.25
2023-02-28T10:37:09.362Z,13.06
2023-02-28T10:40:30.558Z,12.34
2023-02-28T10:43:39.408Z,12.80
2023-02-28T10:46:45.772Z,13.06
2023-02-28T10:49:54.180Z,13.01
2023-02-28T10:53:11.204Z,13.51
2023-02-28T10:56:22.347Z,13.67
2023-02-28T10:59:32.758Z,13.68
2023-02-28T11:02:58.206Z,13.60
2023-02-28T11:06:11.165Z,13.77
2023-02-28T11:09:27.313Z,13.96
2023-02-28T11:12:50.857Z,13.70
2023-02-28T11:16:03.364Z,13.81
2023-02-28T11:19:21.508Z,13.62
2023-02-28T11:22:33.785Z,13.54
2023-02-28T11:25:41.313Z,13.16
2023-02-28T11:28:47.585Z,13.43
2023-02-28T11:32:15.848Z,13.59
2023-02-28T11:35:29.005Z,13.50
2023-02-28T11:38:38.321Z,13.57
2023-02-28T11:42:02.865Z,13.43
2023-02-28T11:45:31.800Z,13.24
2023-02-28T11:48:49.616Z,13.20
2023-02-28T11:52:01.422Z,13.41
2023-02-28T11:55:19.320Z,13.52
2023-02-28T11:58:41.782Z,13.33
2023-02-28T12:02:18.773Z,13.67
2023-02-28T12:05:36.027Z,13.40
2023-02-28T12:08:53.584Z,13.18
2023-02-28T12:12:06.970Z,13.06
2023-02-28T12:15:36.355Z,13.20
2023-02-28T12:18:57.833Z,13.33
2023-02-28T12:22:30.568Z,13.37
2023-02-28T12:25:57.099Z,13.31
2023-02-28T12:29:12.958Z,13.44
2023-02-28T12:32:24.078Z,13.59
2023-02-28T12:35:37.007Z,13.47
2023-02-28T12:38:49.922Z,13.23
2023-02-28T12:42:03.340Z,13.39
2023-02-28T12:45:15.152Z,13.33
2023-02-28T12:48:28.318Z,13.03
2023-02-28T12:51:37.436Z,13.26
2023-02-28T12:54:51.831Z,13.45
2023-02-28T12:58:07.875Z,13.45
2023-02-28T13:01:44.759Z,13.30
2023-02-28T13:05:52.372Z,13.25
2023-02-28T13:09:17.254Z,13.04
2023-02-28T13:12:26.267Z,13.10
2023-02-28T13:15:36.278Z,12.83
2023-02-28T13:18:46.804Z,12.81
2023-02-28T13:21:54.667Z,12.53
2023-02-28T13:25:01.404Z,12.57
2023-02-28T13:28:15.462Z,12.42
2023-02-28T13:31:22.350Z,12.31
2023-02-28T13:34:28.890Z,12.05
2023-02-28T13:37:39.366Z,11.58
2023-02-28T13:40:45.630Z,11.88
2023-02-28T13:44:08.153Z,11.46
2023-02-28T13:47:30.051Z,11.36
2023-02-28T13:50:39.091Z,11.41
2023-02-28T13:54:00.389Z,11.24
2023-02-28T13:57:21.853Z,11.05
2023-02-28T14:00:44.623Z,10.90
2023-02-28T14:04:12.042Z,10.95
2023-02-28T14:07:25.757Z,10.74
2023-02-28T14:10:34.950Z,10.79
2023-02-28T14:13:48.010Z,10.86
2023-02-28T14:16:56.922Z,10.97
2023-02-28T14:20:04.713Z,10.65
2023-02-28T14:23:18.694Z,10.58
2023-02-28T14:26:59.882Z,10.69
2023-02-28T14:30:17.937Z,10.68
2023-02-28T14:33:34.233Z,10.63
2023-02-28T14:36:43.553Z,10.68
2023-02-28T14:39:50.828Z,10.67
2023-02-28T14:43:03.709Z,10.55
2023-02-28T14:46:09.799Z,10.35
2023-02-28T14:49:21.897Z,10.85
2023-02-28T14:52:30.945Z,10.80
2023-02-28T14:55:38.342Z,10.56
2023-02-28T14:58:54.189Z,10.59
2023-02-28T15:02:21.477Z,10.47
2023-02-28T15:05:31.773Z,10.45
2023-02-28T15:08:38.058Z,10.43
2023-02-28T15:11:48.139Z,10.67
2023-02-28T15:14:54.664Z,10.29
2023-02-28T15:18:04.653Z,10.12
2023-02-28T15:21:17.779Z,10.26
2023-02-28T15:24:32.846Z,10.09
2023-02-28T15:27:44.853Z,9.90
2023-02-28T15:31:00.120Z,9.90
2023-02-28T15:34:08.460Z,9.87
2023-02-28T15:37:39.831Z,9.89
2023-02-28T15:40:54.848Z,9.53
2023-02-28T15:44:19.350Z,9.68
2023-02-28T15:47:28.621Z,9.63
2023-02-28T15:50:35.105Z,9.73
2023-02-28T15:53:50.071Z,9.57
2023-02-28T15:56:58.726Z,9.56
2023-02-28T16:00:06.928Z,9.44
2023-02-28T16:03:25.997Z,9.38
2023-02-28T16:06:38.424Z,9.17
2023-02-28T16:09:45.806Z,8.99
2023-02-28T16:12:52.096Z,9.30
2023-02-28T16:15:57.922Z,9.09
2023-02-28T16:19:04.188Z,9.17
2023-02-28T16:22:11.265Z,8.95
2023-02-28T16:25:20.813Z,9.13
2023-02-28T16:28:33.819Z,9.07
2023-02-28T16:31:40.696Z,8.91
2023-02-28T16:34:47.049Z,8.85
2023-02-28T16:37:54.086Z,8.74
2023-02-28T16:41:02.914Z,9.00
2023-02-28T16:44:15.826Z,8.97
2023-02-28T16:47:21.871Z,8.87
2023-02-28T16:50:30.066Z,8.90
2023-02-28T16:53:36.236Z,8.89
2023-02-28T16:56:47.074Z,9.01
2023-02-28T16:59:53.412Z,8.96
2023-02-28T17:03:00.523Z,8.72
2023-02-28T17:06:08.433Z,8.70
2023-02-28T17:09:20.322Z,9.09
2023-02-28T17:12:28.476Z,8.99
2023-02-28T17:15:34.450Z,8.88
2023-02-28T17:18:40.457Z,8.85
2023-02-28T17:21:47.157Z,8.87
2023-02-28T17:24:52.961Z,8.91
2023-02-28T17:28:00.199Z,9.00
2023-02-28T17:31:07.071Z,8.59
2023-02-28T17:34:19.132Z,8.91
2023-02-28T17:37:25.184Z,8.54
2023-02-28T17:40:31.177Z,8.26
2023-02-28T17:43:38.967Z,8.27
2023-02-28T17:46:45.945Z,8.74
2023-02-28T17:49:52.145Z,8.46
2023-02-28T17:52:58.624Z,8.64
2023-02-28T17:56:05.397Z,8.88
2023-02-28T17:59:14.397Z,8.71
2023-02-28T18:02:20.721Z,8.52
2023-02-28T18:05:27.401Z,8.75
2023-02-28T18:08:36.346Z,8.51
2023-02-28T18:11:49.151Z,8.73
2023-02-28T18:14:56.964Z,8.71
2023-02-28T18:18:03.471Z,8.66
2023-02-28T18:21:10.933Z,8.70
2023-02-28T18:24:17.681Z,8.75
2023-02-28T18:27:24.040Z,8.49
2023-02-28T18:30:33.569Z,8.57
2023-02-28T18:33:39.844Z,8.63
2023-02-28T18:36:47.354Z,8.52
2023-02-28T18:39:54.239Z,8.50
2023-02-28T18:43:00.983Z,8.51
2023-02-28T18:46:11.021Z,8.53
2023-02-28T18:49:17.356Z,8.51
2023-02-28T18:52:23.653Z,8.57
2023-02-28T18:55:29.674Z,8.53
2023-02-28T18:58:36.688Z,8.59
2023-02-28T19:01:46.744Z,8.36
2023-02-28T19:04:53.387Z,8.35
2023-02-28T19:07:59.810Z,8.45
2023-02-28T19:11:09.361Z,8.25
2023-02-28T19:14:15.596Z,8.38
2023-02-28T19:17:23.294Z,8.43
2023-02-28T19:20:29.516Z,8.27
2023-02-28T19:23:36.204Z,8.18
2023-02-28T19:26:42.717Z,8.34
2023-02-28T19:29:50.031Z,8.26
2023-02-28T19:32:57.719Z,8.07
2023-02-28T19:36:04.096Z,8.09
2023-02-28T19:39:10.081Z,7.93
2023-02-28T19:42:17.906Z,8.02
2023-02-28T19:45:24.466Z,8.24
2023-02-28T19:48:32.076Z,8.14
2023-02-28T19:51:38.494Z,8.15
2023-02-28T19:54:44.570Z,7.98
2023-02-28T19:57:50.542Z,8.02
2023-02-28T20:00:56.945Z,8.06
2023-02-28T20:04:05.967Z,7.93
2023-02-28T20:07:12.239Z,8.05
2023-02-28T20:10:18.846Z,8.15
2023-02-28T20:13:28.106Z,8.06
2023-02-28T20:16:34.434Z,7.98
2023-02-28T20:19:41.754Z,8.08
2023-02-28T20:22:48.161Z,8.07
2023-02-28T20:25:54.277Z,8.05
2023-02-28T20:29:00.626Z,8.00
2023-02-28T20:32:08.269Z,8.07
2023-02-28T20:35:15.963Z,7.98
2023-02-28T20:38:22.427Z,7.98
2023-02-28T20:41:28.846Z,7.86
2023-02-28T20:44:35.123Z,7.79
2023-02-28T20:47:42.568Z,7.75
2023-02-28T20:50:55.256Z,7.89
2023-02-28T20:54:02.368Z,7.81
2023-02-28T20:57:09.488Z,7.76
2023-02-28T21:00:19.582Z,7.81
2023-02-28T21:03:25.507Z,7.71
2023-02-28T21:06:35.525Z,7.76
2023-02-28T21:09:41.446Z,7.76
2023-02-28T21:12:50.801Z,7.51
2023-02-28T21:15:57.268Z,7.53
2023-02-28T21:19:05.028Z,7.43
2023-02-28T21:22:14.063Z,7.60
2023-02-28T21:25:20.238Z,7.38
2023-02-28T21:28:26.261Z,7.52
2023-02-28T21:31:34.831Z,7.53
2023-02-28T21:34:41.630Z,7.52
2023-02-28T21:37:49.361Z,7.26
2023-02-28T21:40:55.338Z,7.25
2023-02-28T21:44:01.548Z,7.21
2023-02-28T21:47:07.750Z,7.23
2023-02-28T21:50:13.883Z,7.23
2023-02-28T21:53:22.041Z,6.89
2023-02-28T21:56:31.239Z,7.18
2023-02-28T21:59:37.775Z,7.06
2023-02-28T22:02:44.148Z,7.15
2023-02-28T22:05:50.257Z,6.77
2023-02-28T22:08:59.284Z,6.68
2023-02-28T22:12:08.544Z,7.11
2023-02-28T22:15:14.820Z,7.03
2023-02-28T22:18:21.119Z,6.75
2023-02-28T22:21:27.583Z,6.65
2023-02-28T22:24:35.440Z,6.57
2023-02-28T22:27:41.943Z,6.37
2023-02-28T22:30:49.152Z,6.07
2023-02-28T22:33:57.624Z,6.18
2023-02-28T22:37:04.085Z,6.74
2023-02-28T22:40:13.392Z,6.27
2023-02-28T22:43:19.406Z,6.74
2023-02-28T22:46:27.708Z,6.73
2023-02-28T22:49:33.909Z,6.33
2023-02-28T22:52:41.354Z,6.76
2023-02-28T22:55:56.130Z,6.59
2023-02-28T22:59:03.128Z,6.82
2023-02-28T23:02:09.188Z,6.94
2023-02-28T23:05:16.170Z,6.82
2023-02-28T23:08:23.386Z,6.60
2023-02-28T23:11:33.626Z,6.61
2023-02-28T23:14:39.903Z,6.77
2023-02-28T23:17:48.590Z,6.70
2023-02-28T23:20:57.545Z,6.85
2023-02-28T23:24:04.956Z,6.84
2023-02-28T23:27:12.662Z,6.95
2023-02-28T23:30:19.211Z,6.95
2023-02-28T23:33:26.479Z,6.79
2023-02-28T23:36:33.526Z,6.76
2023-02-28T23:39:41.561Z,6.83
2023-02-28T23:42:49.508Z,6.83
2023-02-28T23:45:58.713Z,6.87
2023-02-28T23:49:04.874Z,6.87
2023-02-28T23:52:11.085Z,6.75
2023-02-28T23:55:17.623Z,6.80
2023-02-28T23:58:25.698Z,6.69
